Chesterfield, MA (01012)

7:06 AM EST on February 07, 2016 (GMT -0500)
Chesterfield | | Change Station
CLOSE
Current Station
Personal Weather Station
Location: Chesterfield, MA
Elevation: 1190 ft
Nearby Weather Stations

Elev 1190 ft 42.36 °N, 72.85 °W | Updated 1 minute ago

Mostly Cloudy
Mostly Cloudy
25.0 °F
Feels Like 25 °F
N
0.0
Wind Variable Wind from ESE
Gusts 0.0 mph

Today
High -- | Low -- °F
--% Chance of Precip.
Yesterday
High -- | Low -- °F
Precip. -- in
Pressure 30.19 in
Visibility 2.5 miles
Clouds Clear
Windchill 25 °F
Dew Point 20 °F
Humidity 80%
Rainfall 0.00 in
Snow Depth Not available.
6:58 AM 5:12 PM
Waning Crescent, 2% visible
METAR KBAF 071153Z 00000KT 2 1/2SM BR CLR M09/M10 A3017 RMK AO2 SLP224 I6001 T10891100 11017 21089 55001
Pressure 30.19 in
Visibility 2.5 miles
Clouds Clear
Windchill 25 °F
Dew Point 20 °F
Humidity 80%
Rainfall 0.00 in
Snow Depth Not available.
6:58 AM 5:12 PM
Waning Crescent, 2% visible
METAR KBAF 071153Z 00000KT 2 1/2SM BR CLR M09/M10 A3017 RMK AO2 SLP224 I6001 T10891100 11017 21089 55001

10-Day Weather Forecast

Almanac

Astronomy

Feb. 07, 2016 Rise Set
Actual Time
Civil Twilight
Nautical Twilight
Astronomical Twilight
Moon
Length of Visible Light
Length of Day
Tomorrow will be .
, % of the Moon is Illuminated

Today's Extremes

State Highs State Lows

Community

WunderPhotos

Upload Photos

1,891,182 photos uploaded!

WunderBlog® & News

Nearby

Air Quality

  Air Quality AQ Index Pollutant
Not available.

Snow Depth

Station Depth Elevation

Earthquake Activity

City Distance Mag. Time & Date
Minimum magnitude displayed is 2.5.

Coastal Water Temperatures

Place Temperature

Stations

Nearby Weather Stations

Station Location Temp. Windchill Dew Point Humidity Wind Precip. Elev Updated Type
                   

Watches & Warnings

There are currently no watches in effect.